sensor_id;sensor_type;location;lat;lon;timestamp;P1;durP1;ratioP1;P2;durP2;ratioP2
68976;SDS011;56029;52.568;13.588;2023-12-28T00:00:37;12.13;;;4.65;;
68976;SDS011;56029;52.568;13.588;2023-12-28T00:03:25;10.00;;;4.40;;
68976;SDS011;56029;52.568;13.588;2023-12-28T00:05:50;10.73;;;4.73;;
68976;SDS011;56029;52.568;13.588;2023-12-28T00:08:16;11.48;;;4.40;;
68976;SDS011;56029;52.568;13.588;2023-12-28T00:10:41;10.73;;;4.10;;
68976;SDS011;56029;52.568;13.588;2023-12-28T00:13:08;9.23;;;4.30;;
68976;SDS011;56029;52.568;13.588;2023-12-28T00:15:34;8.60;;;4.30;;
68976;SDS011;56029;52.568;13.588;2023-12-28T00:17:59;9.70;;;4.30;;
68976;SDS011;56029;52.568;13.588;2023-12-28T00:20:25;10.13;;;4.90;;
68976;SDS011;56029;52.568;13.588;2023-12-28T00:22:51;11.23;;;4.50;;
68976;SDS011;56029;52.568;13.588;2023-12-28T00:25:16;11.53;;;4.30;;
68976;SDS011;56029;52.568;13.588;2023-12-28T00:27:42;9.55;;;4.13;;
68976;SDS011;56029;52.568;13.588;2023-12-28T00:30:10;10.35;;;4.35;;
68976;SDS011;56029;52.568;13.588;2023-12-28T00:32:36;10.17;;;4.23;;
68976;SDS011;56029;52.568;13.588;2023-12-28T00:35:02;11.82;;;4.57;;
68976;SDS011;56029;52.568;13.588;2023-12-28T00:37:27;10.77;;;4.20;;
68976;SDS011;56029;52.568;13.588;2023-12-28T00:39:53;9.47;;;4.03;;
68976;SDS011;56029;52.568;13.588;2023-12-28T00:42:18;9.40;;;4.03;;
68976;SDS011;56029;52.568;13.588;2023-12-28T00:44:44;9.67;;;4.10;;
68976;SDS011;56029;52.568;13.588;2023-12-28T00:47:09;10.52;;;4.00;;
68976;SDS011;56029;52.568;13.588;2023-12-28T00:49:35;8.37;;;3.60;;
68976;SDS011;56029;52.568;13.588;2023-12-28T00:52:01;9.23;;;4.40;;
68976;SDS011;56029;52.568;13.588;2023-12-28T00:54:26;9.57;;;4.45;;
68976;SDS011;56029;52.568;13.588;2023-12-28T00:56:52;11.13;;;4.50;;
68976;SDS011;56029;52.568;13.588;2023-12-28T00:59:17;9.40;;;3.83;;
68976;SDS011;56029;52.568;13.588;2023-12-28T01:01:43;8.38;;;3.58;;
68976;SDS011;56029;52.568;13.588;2023-12-28T01:04:09;8.47;;;3.60;;
68976;SDS011;56029;52.568;13.588;2023-12-28T01:06:34;8.45;;;3.78;;
68976;SDS011;56029;52.568;13.588;2023-12-28T01:09:00;7.63;;;3.40;;
68976;SDS011;56029;52.568;13.588;2023-12-28T01:11:25;8.17;;;3.90;;
68976;SDS011;56029;52.568;13.588;2023-12-28T01:13:51;10.53;;;3.63;;
68976;SDS011;56029;52.568;13.588;2023-12-28T01:16:17;7.53;;;3.80;;
68976;SDS011;56029;52.568;13.588;2023-12-28T01:18:42;8.13;;;3.70;;
68976;SDS011;56029;52.568;13.588;2023-12-28T01:21:08;8.00;;;3.77;;
68976;SDS011;56029;52.568;13.588;2023-12-28T01:23:34;8.68;;;3.80;;
68976;SDS011;56029;52.568;13.588;2023-12-28T01:25:59;8.50;;;3.70;;
68976;SDS011;56029;52.568;13.588;2023-12-28T01:28:25;8.05;;;3.60;;
68976;SDS011;56029;52.568;13.588;2023-12-28T01:30:51;8.03;;;3.57;;
68976;SDS011;56029;52.568;13.588;2023-12-28T01:33:16;9.80;;;3.60;;
68976;SDS011;56029;52.568;13.588;2023-12-28T01:35:42;8.90;;;3.53;;
68976;SDS011;56029;52.568;13.588;2023-12-28T01:38:08;7.45;;;3.20;;
68976;SDS011;56029;52.568;13.588;2023-12-28T01:40:34;8.07;;;3.40;;
68976;SDS011;56029;52.568;13.588;2023-12-28T01:43:00;9.55;;;3.90;;
68976;SDS011;56029;52.568;13.588;2023-12-28T01:45:26;8.47;;;3.77;;
68976;SDS011;56029;52.568;13.588;2023-12-28T01:47:52;8.15;;;3.70;;
68976;SDS011;56029;52.568;13.588;2023-12-28T01:50:19;7.82;;;3.28;;
68976;SDS011;56029;52.568;13.588;2023-12-28T01:52:46;8.07;;;3.33;;
68976;SDS011;56029;52.568;13.588;2023-12-28T01:55:13;6.50;;;3.30;;
68976;SDS011;56029;52.568;13.588;2023-12-28T01:57:38;7.63;;;3.60;;
68976;SDS011;56029;52.568;13.588;2023-12-28T02:00:05;7.80;;;3.60;;
68976;SDS011;56029;52.568;13.588;2023-12-28T02:02:31;9.03;;;3.70;;
68976;SDS011;56029;52.568;13.588;2023-12-28T02:04:58;7.95;;;3.28;;
68976;SDS011;56029;52.568;13.588;2023-12-28T02:07:24;8.07;;;3.30;;
68976;SDS011;56029;52.568;13.588;2023-12-28T02:09:49;9.43;;;3.20;;
68976;SDS011;56029;52.568;13.588;2023-12-28T02:12:15;8.07;;;3.40;;
68976;SDS011;56029;52.568;13.588;2023-12-28T02:14:41;8.47;;;3.67;;
68976;SDS011;56029;52.568;13.588;2023-12-28T02:17:10;7.28;;;3.20;;
68976;SDS011;56029;52.568;13.588;2023-12-28T02:19:55;7.20;;;3.08;;
68976;SDS011;56029;52.568;13.588;2023-12-28T02:22:23;6.57;;;3.05;;
68976;SDS011;56029;52.568;13.588;2023-12-28T02:24:56;7.03;;;3.20;;
68976;SDS011;56029;52.568;13.588;2023-12-28T02:27:41;6.88;;;3.05;;
68976;SDS011;56029;52.568;13.588;2023-12-28T02:30:08;6.72;;;3.00;;
68976;SDS011;56029;52.568;13.588;2023-12-28T02:35:17;6.85;;;2.78;;
68976;SDS011;56029;52.568;13.588;2023-12-28T02:37:46;6.20;;;2.87;;
68976;SDS011;56029;52.568;13.588;2023-12-28T02:40:17;8.57;;;2.95;;
68976;SDS011;56029;52.568;13.588;2023-12-28T02:42:46;7.38;;;2.85;;
68976;SDS011;56029;52.568;13.588;2023-12-28T02:45:12;6.20;;;2.80;;
68976;SDS011;56029;52.568;13.588;2023-12-28T02:47:37;4.00;;;2.47;;
68976;SDS011;56029;52.568;13.588;2023-12-28T02:50:03;4.97;;;2.70;;
68976;SDS011;56029;52.568;13.588;2023-12-28T02:52:29;6.72;;;2.60;;
68976;SDS011;56029;52.568;13.588;2023-12-28T02:54:54;5.40;;;2.83;;
68976;SDS011;56029;52.568;13.588;2023-12-28T02:57:20;5.80;;;2.50;;
68976;SDS011;56029;52.568;13.588;2023-12-28T02:59:46;6.13;;;2.77;;
68976;SDS011;56029;52.568;13.588;2023-12-28T03:02:11;6.05;;;2.70;;
68976;SDS011;56029;52.568;13.588;2023-12-28T03:04:37;5.37;;;2.50;;
68976;SDS011;56029;52.568;13.588;2023-12-28T03:07:02;5.30;;;2.63;;
68976;SDS011;56029;52.568;13.588;2023-12-28T03:09:28;4.57;;;2.40;;
68976;SDS011;56029;52.568;13.588;2023-12-28T03:11:55;5.45;;;2.40;;
68976;SDS011;56029;52.568;13.588;2023-12-28T03:14:21;5.13;;;2.47;;
68976;SDS011;56029;52.568;13.588;2023-12-28T03:16:46;5.13;;;2.40;;
68976;SDS011;56029;52.568;13.588;2023-12-28T03:19:12;4.18;;;2.25;;
68976;SDS011;56029;52.568;13.588;2023-12-28T03:21:41;5.67;;;2.30;;
68976;SDS011;56029;52.568;13.588;2023-12-28T03:24:06;3.72;;;2.20;;
68976;SDS011;56029;52.568;13.588;2023-12-28T03:26:32;4.27;;;2.20;;
68976;SDS011;56029;52.568;13.588;2023-12-28T03:28:57;5.03;;;2.10;;
68976;SDS011;56029;52.568;13.588;2023-12-28T03:31:26;4.07;;;2.10;;
68976;SDS011;56029;52.568;13.588;2023-12-28T03:33:51;4.93;;;2.10;;
68976;SDS011;56029;52.568;13.588;2023-12-28T03:36:17;4.17;;;2.07;;
68976;SDS011;56029;52.568;13.588;2023-12-28T03:38:46;5.38;;;1.98;;
68976;SDS011;56029;52.568;13.588;2023-12-28T03:41:20;4.07;;;2.00;;
68976;SDS011;56029;52.568;13.588;2023-12-28T03:43:47;4.10;;;1.77;;
68976;SDS011;56029;52.568;13.588;2023-12-28T03:46:12;3.85;;;1.92;;
68976;SDS011;56029;52.568;13.588;2023-12-28T03:48:38;3.88;;;1.90;;
68976;SDS011;56029;52.568;13.588;2023-12-28T03:51:04;3.80;;;1.90;;
68976;SDS011;56029;52.568;13.588;2023-12-28T03:53:30;5.10;;;2.40;;
68976;SDS011;56029;52.568;13.588;2023-12-28T03:55:59;4.32;;;2.05;;
68976;SDS011;56029;52.568;13.588;2023-12-28T03:58:25;4.50;;;2.08;;
68976;SDS011;56029;52.568;13.588;2023-12-28T04:00:53;3.77;;;1.73;;
68976;SDS011;56029;52.568;13.588;2023-12-28T04:03:19;4.28;;;1.98;;
68976;SDS011;56029;52.568;13.588;2023-12-28T04:05:44;4.23;;;2.10;;
68976;SDS011;56029;52.568;13.588;2023-12-28T04:08:10;6.17;;;2.60;;
68976;SDS011;56029;52.568;13.588;2023-12-28T04:10:36;5.07;;;2.50;;
68976;SDS011;56029;52.568;13.588;2023-12-28T04:13:01;5.63;;;2.47;;
68976;SDS011;56029;52.568;13.588;2023-12-28T04:15:27;5.13;;;2.80;;
68976;SDS011;56029;52.568;13.588;2023-12-28T04:17:53;5.83;;;2.83;;
68976;SDS011;56029;52.568;13.588;2023-12-28T04:20:21;6.93;;;2.83;;
68976;SDS011;56029;52.568;13.588;2023-12-28T04:22:46;4.80;;;2.55;;
68976;SDS011;56029;52.568;13.588;2023-12-28T04:25:12;4.73;;;2.50;;
68976;SDS011;56029;52.568;13.588;2023-12-28T04:27:38;5.82;;;3.00;;
68976;SDS011;56029;52.568;13.588;2023-12-28T04:30:04;6.13;;;2.87;;
68976;SDS011;56029;52.568;13.588;2023-12-28T04:32:33;6.18;;;2.90;;
68976;SDS011;56029;52.568;13.588;2023-12-28T04:34:59;5.75;;;2.60;;
68976;SDS011;56029;52.568;13.588;2023-12-28T04:37:24;5.03;;;2.60;;
68976;SDS011;56029;52.568;13.588;2023-12-28T04:39:50;5.77;;;2.47;;
68976;SDS011;56029;52.568;13.588;2023-12-28T04:42:16;4.43;;;2.27;;
68976;SDS011;56029;52.568;13.588;2023-12-28T04:44:41;3.85;;;2.03;;
68976;SDS011;56029;52.568;13.588;2023-12-28T04:47:07;3.87;;;1.80;;
68976;SDS011;56029;52.568;13.588;2023-12-28T04:49:32;3.67;;;2.13;;
68976;SDS011;56029;52.568;13.588;2023-12-28T04:51:58;4.40;;;2.00;;
68976;SDS011;56029;52.568;13.588;2023-12-28T04:54:23;4.90;;;1.90;;
68976;SDS011;56029;52.568;13.588;2023-12-28T04:56:49;4.72;;;1.70;;
68976;SDS011;56029;52.568;13.588;2023-12-28T04:59:14;4.27;;;1.90;;
68976;SDS011;56029;52.568;13.588;2023-12-28T05:01:41;4.53;;;1.90;;
68976;SDS011;56029;52.568;13.588;2023-12-28T05:04:06;3.28;;;1.70;;
68976;SDS011;56029;52.568;13.588;2023-12-28T05:06:33;5.13;;;1.92;;
68976;SDS011;56029;52.568;13.588;2023-12-28T05:08:59;2.93;;;1.67;;
68976;SDS011;56029;52.568;13.588;2023-12-28T05:11:24;5.43;;;1.80;;
68976;SDS011;56029;52.568;13.588;2023-12-28T05:13:50;3.73;;;2.00;;
68976;SDS011;56029;52.568;13.588;2023-12-28T05:16:16;4.10;;;1.70;;
68976;SDS011;56029;52.568;13.588;2023-12-28T05:18:41;4.43;;;1.92;;
68976;SDS011;56029;52.568;13.588;2023-12-28T05:21:07;3.40;;;1.67;;
68976;SDS011;56029;52.568;13.588;2023-12-28T05:23:36;3.88;;;1.98;;
68976;SDS011;56029;52.568;13.588;2023-12-28T05:26:01;4.03;;;1.95;;
68976;SDS011;56029;52.568;13.588;2023-12-28T05:28:27;3.63;;;1.83;;
68976;SDS011;56029;52.568;13.588;2023-12-28T05:30:52;4.10;;;2.00;;
68976;SDS011;56029;52.568;13.588;2023-12-28T05:33:18;3.00;;;1.73;;
68976;SDS011;56029;52.568;13.588;2023-12-28T05:35:43;5.13;;;1.80;;
68976;SDS011;56029;52.568;13.588;2023-12-28T05:38:09;3.80;;;1.80;;
68976;SDS011;56029;52.568;13.588;2023-12-28T05:40:34;3.88;;;1.70;;
68976;SDS011;56029;52.568;13.588;2023-12-28T05:43:00;3.57;;;1.70;;
68976;SDS011;56029;52.568;13.588;2023-12-28T05:45:26;2.90;;;1.70;;
68976;SDS011;56029;52.568;13.588;2023-12-28T05:47:51;4.13;;;2.00;;
68976;SDS011;56029;52.568;13.588;2023-12-28T05:50:17;3.83;;;1.77;;
68976;SDS011;56029;52.568;13.588;2023-12-28T05:52:42;4.03;;;2.00;;
68976;SDS011;56029;52.568;13.588;2023-12-28T05:55:08;4.05;;;1.80;;
68976;SDS011;56029;52.568;13.588;2023-12-28T05:57:33;3.90;;;2.03;;
68976;SDS011;56029;52.568;13.588;2023-12-28T05:59:59;3.85;;;1.70;;
68976;SDS011;56029;52.568;13.588;2023-12-28T06:02:24;3.60;;;1.90;;
68976;SDS011;56029;52.568;13.588;2023-12-28T06:04:50;4.47;;;1.90;;
68976;SDS011;56029;52.568;13.588;2023-12-28T06:07:15;3.95;;;1.80;;
68976;SDS011;56029;52.568;13.588;2023-12-28T06:09:41;3.77;;;2.00;;
68976;SDS011;56029;52.568;13.588;2023-12-28T06:12:06;3.90;;;1.80;;
68976;SDS011;56029;52.568;13.588;2023-12-28T06:14:32;4.38;;;1.90;;
68976;SDS011;56029;52.568;13.588;2023-12-28T06:16:58;4.73;;;1.80;;
68976;SDS011;56029;52.568;13.588;2023-12-28T06:19:24;3.50;;;1.90;;
68976;SDS011;56029;52.568;13.588;2023-12-28T06:21:50;3.67;;;1.88;;
68976;SDS011;56029;52.568;13.588;2023-12-28T06:24:16;3.97;;;1.67;;
68976;SDS011;56029;52.568;13.588;2023-12-28T06:26:41;3.10;;;1.70;;
68976;SDS011;56029;52.568;13.588;2023-12-28T06:29:10;3.17;;;1.77;;
68976;SDS011;56029;52.568;13.588;2023-12-28T06:31:36;3.93;;;1.70;;
68976;SDS011;56029;52.568;13.588;2023-12-28T06:34:05;3.83;;;1.75;;
68976;SDS011;56029;52.568;13.588;2023-12-28T06:36:31;3.17;;;1.67;;
68976;SDS011;56029;52.568;13.588;2023-12-28T06:38:57;3.85;;;1.60;;
68976;SDS011;56029;52.568;13.588;2023-12-28T06:41:26;4.00;;;1.65;;
68976;SDS011;56029;52.568;13.588;2023-12-28T06:43:52;3.22;;;1.70;;
68976;SDS011;56029;52.568;13.588;2023-12-28T06:46:18;3.40;;;1.70;;
68976;SDS011;56029;52.568;13.588;2023-12-28T06:48:44;5.32;;;1.95;;
68976;SDS011;56029;52.568;13.588;2023-12-28T06:51:10;3.10;;;2.07;;
68976;SDS011;56029;52.568;13.588;2023-12-28T06:53:41;3.78;;;2.13;;
68976;SDS011;56029;52.568;13.588;2023-12-28T06:56:06;4.97;;;2.10;;
68976;SDS011;56029;52.568;13.588;2023-12-28T06:58:32;3.70;;;1.90;;
68976;SDS011;56029;52.568;13.588;2023-12-28T07:00:57;5.13;;;2.07;;
68976;SDS011;56029;52.568;13.588;2023-12-28T07:03:23;3.73;;;2.03;;
68976;SDS011;56029;52.568;13.588;2023-12-28T07:05:48;4.23;;;2.10;;
68976;SDS011;56029;52.568;13.588;2023-12-28T07:08:14;5.10;;;2.10;;
68976;SDS011;56029;52.568;13.588;2023-12-28T07:10:40;5.17;;;2.10;;
68976;SDS011;56029;52.568;13.588;2023-12-28T07:13:05;4.25;;;1.80;;
68976;SDS011;56029;52.568;13.588;2023-12-28T07:15:31;4.30;;;2.10;;
68976;SDS011;56029;52.568;13.588;2023-12-28T07:17:56;4.87;;;2.20;;
68976;SDS011;56029;52.568;13.588;2023-12-28T07:20:22;4.33;;;2.00;;
68976;SDS011;56029;52.568;13.588;2023-12-28T07:22:47;4.03;;;2.00;;
68976;SDS011;56029;52.568;13.588;2023-12-28T07:25:13;3.70;;;1.90;;
68976;SDS011;56029;52.568;13.588;2023-12-28T07:27:39;3.55;;;1.95;;
68976;SDS011;56029;52.568;13.588;2023-12-28T07:30:04;4.87;;;2.17;;
68976;SDS011;56029;52.568;13.588;2023-12-28T07:32:31;4.38;;;2.17;;
68976;SDS011;56029;52.568;13.588;2023-12-28T07:34:56;5.23;;;2.53;;
68976;SDS011;56029;52.568;13.588;2023-12-28T07:37:22;5.03;;;2.30;;
68976;SDS011;56029;52.568;13.588;2023-12-28T07:39:47;4.43;;;2.17;;
68976;SDS011;56029;52.568;13.588;2023-12-28T07:42:13;4.70;;;2.10;;
68976;SDS011;56029;52.568;13.588;2023-12-28T07:44:38;4.05;;;2.00;;
68976;SDS011;56029;52.568;13.588;2023-12-28T07:47:04;5.00;;;2.13;;
68976;SDS011;56029;52.568;13.588;2023-12-28T07:49:30;5.47;;;2.10;;
68976;SDS011;56029;52.568;13.588;2023-12-28T07:51:56;4.13;;;2.17;;
68976;SDS011;56029;52.568;13.588;2023-12-28T07:54:22;4.35;;;2.20;;
68976;SDS011;56029;52.568;13.588;2023-12-28T07:56:47;5.47;;;2.07;;
68976;SDS011;56029;52.568;13.588;2023-12-28T07:59:13;5.33;;;2.03;;
68976;SDS011;56029;52.568;13.588;2023-12-28T08:01:38;5.43;;;2.20;;
68976;SDS011;56029;52.568;13.588;2023-12-28T08:04:04;5.43;;;2.10;;
68976;SDS011;56029;52.568;13.588;2023-12-28T08:06:31;5.87;;;2.30;;
68976;SDS011;56029;52.568;13.588;2023-12-28T08:08:57;4.27;;;2.17;;
68976;SDS011;56029;52.568;13.588;2023-12-28T08:11:22;4.17;;;2.20;;
68976;SDS011;56029;52.568;13.588;2023-12-28T08:13:48;4.43;;;2.00;;
68976;SDS011;56029;52.568;13.588;2023-12-28T08:16:13;4.78;;;2.00;;
68976;SDS011;56029;52.568;13.588;2023-12-28T08:18:39;5.10;;;2.03;;
68976;SDS011;56029;52.568;13.588;2023-12-28T08:21:04;3.20;;;1.97;;
68976;SDS011;56029;52.568;13.588;2023-12-28T08:23:30;3.30;;;2.00;;
68976;SDS011;56029;52.568;13.588;2023-12-28T08:25:55;5.10;;;1.93;;
68976;SDS011;56029;52.568;13.588;2023-12-28T08:28:21;3.83;;;2.03;;
68976;SDS011;56029;52.568;13.588;2023-12-28T08:30:47;3.97;;;2.10;;
68976;SDS011;56029;52.568;13.588;2023-12-28T08:33:12;5.00;;;2.20;;
68976;SDS011;56029;52.568;13.588;2023-12-28T08:35:38;4.43;;;2.07;;
68976;SDS011;56029;52.568;13.588;2023-12-28T08:38:03;4.68;;;1.92;;
68976;SDS011;56029;52.568;13.588;2023-12-28T08:40:29;3.77;;;1.80;;
68976;SDS011;56029;52.568;13.588;2023-12-28T08:42:54;4.70;;;2.13;;
68976;SDS011;56029;52.568;13.588;2023-12-28T08:45:20;3.65;;;2.00;;
68976;SDS011;56029;52.568;13.588;2023-12-28T08:47:45;5.30;;;2.30;;
68976;SDS011;56029;52.568;13.588;2023-12-28T08:50:11;4.00;;;2.30;;
68976;SDS011;56029;52.568;13.588;2023-12-28T08:52:36;4.72;;;2.00;;
68976;SDS011;56029;52.568;13.588;2023-12-28T08:55:02;4.10;;;2.00;;
68976;SDS011;56029;52.568;13.588;2023-12-28T08:57:29;5.35;;;2.20;;
68976;SDS011;56029;52.568;13.588;2023-12-28T08:59:55;6.60;;;2.10;;
68976;SDS011;56029;52.568;13.588;2023-12-28T09:02:20;4.00;;;2.15;;
68976;SDS011;56029;52.568;13.588;2023-12-28T09:04:46;4.23;;;2.07;;
68976;SDS011;56029;52.568;13.588;2023-12-28T09:07:11;4.27;;;2.03;;
68976;SDS011;56029;52.568;13.588;2023-12-28T09:09:37;4.18;;;2.08;;
68976;SDS011;56029;52.568;13.588;2023-12-28T09:12:03;4.73;;;2.30;;
68976;SDS011;56029;52.568;13.588;2023-12-28T09:14:29;4.65;;;2.60;;
68976;SDS011;56029;52.568;13.588;2023-12-28T09:16:54;4.77;;;2.23;;
68976;SDS011;56029;52.568;13.588;2023-12-28T09:19:20;4.20;;;2.35;;
68976;SDS011;56029;52.568;13.588;2023-12-28T09:21:45;4.70;;;2.20;;
68976;SDS011;56029;52.568;13.588;2023-12-28T09:24:11;4.33;;;2.17;;
68976;SDS011;56029;52.568;13.588;2023-12-28T09:26:36;5.68;;;2.40;;
68976;SDS011;56029;52.568;13.588;2023-12-28T09:29:02;4.77;;;2.70;;
68976;SDS011;56029;52.568;13.588;2023-12-28T09:31:27;4.00;;;2.40;;
68976;SDS011;56029;52.568;13.588;2023-12-28T09:33:53;5.07;;;2.30;;
68976;SDS011;56029;52.568;13.588;2023-12-28T09:36:18;4.50;;;2.37;;
68976;SDS011;56029;52.568;13.588;2023-12-28T09:38:44;4.57;;;2.10;;
68976;SDS011;56029;52.568;13.588;2023-12-28T09:41:11;5.53;;;2.27;;
68976;SDS011;56029;52.568;13.588;2023-12-28T09:43:40;4.40;;;2.40;;
68976;SDS011;56029;52.568;13.588;2023-12-28T09:46:13;5.83;;;2.50;;
68976;SDS011;56029;52.568;13.588;2023-12-28T09:48:39;5.35;;;2.33;;
68976;SDS011;56029;52.568;13.588;2023-12-28T09:51:05;4.93;;;2.60;;
68976;SDS011;56029;52.568;13.588;2023-12-28T09:53:31;5.50;;;2.53;;
68976;SDS011;56029;52.568;13.588;2023-12-28T09:55:56;5.57;;;2.80;;
68976;SDS011;56029;52.568;13.588;2023-12-28T09:58:22;5.00;;;2.42;;
68976;SDS011;56029;52.568;13.588;2023-12-28T10:00:48;5.73;;;2.70;;
68976;SDS011;56029;52.568;13.588;2023-12-28T10:03:15;5.00;;;2.78;;
68976;SDS011;56029;52.568;13.588;2023-12-28T10:05:42;5.65;;;2.60;;
68976;SDS011;56029;52.568;13.588;2023-12-28T10:08:10;6.25;;;2.70;;
68976;SDS011;56029;52.568;13.588;2023-12-28T10:10:36;5.70;;;2.65;;
68976;SDS011;56029;52.568;13.588;2023-12-28T10:13:06;6.30;;;2.80;;
68976;SDS011;56029;52.568;13.588;2023-12-28T10:15:32;5.13;;;2.80;;
68976;SDS011;56029;52.568;13.588;2023-12-28T10:17:57;5.68;;;2.63;;
68976;SDS011;56029;52.568;13.588;2023-12-28T10:20:26;5.07;;;2.60;;
68976;SDS011;56029;52.568;13.588;2023-12-28T10:22:52;6.45;;;2.88;;
68976;SDS011;56029;52.568;13.588;2023-12-28T10:25:17;5.27;;;3.00;;
68976;SDS011;56029;52.568;13.588;2023-12-28T10:27:43;5.32;;;2.95;;
68976;SDS011;56029;52.568;13.588;2023-12-28T10:30:19;5.50;;;2.73;;
68976;SDS011;56029;52.568;13.588;2023-12-28T10:32:48;4.55;;;2.60;;
68976;SDS011;56029;52.568;13.588;2023-12-28T10:35:14;6.17;;;2.77;;
68976;SDS011;56029;52.568;13.588;2023-12-28T10:37:40;4.50;;;2.47;;
68976;SDS011;56029;52.568;13.588;2023-12-28T10:40:06;5.15;;;2.80;;
68976;SDS011;56029;52.568;13.588;2023-12-28T10:42:33;5.03;;;2.70;;
68976;SDS011;56029;52.568;13.588;2023-12-28T10:45:09;7.13;;;2.95;;
68976;SDS011;56029;52.568;13.588;2023-12-28T10:47:42;6.15;;;2.55;;
68976;SDS011;56029;52.568;13.588;2023-12-28T10:50:11;5.72;;;2.65;;
68976;SDS011;56029;52.568;13.588;2023-12-28T10:52:38;6.38;;;2.45;;
68976;SDS011;56029;52.568;13.588;2023-12-28T10:58:09;5.18;;;2.53;;
68976;SDS011;56029;52.568;13.588;2023-12-28T11:00:36;5.72;;;2.80;;
68976;SDS011;56029;52.568;13.588;2023-12-28T11:03:13;5.43;;;2.92;;
68976;SDS011;56029;52.568;13.588;2023-12-28T11:05:44;6.40;;;2.80;;
68976;SDS011;56029;52.568;13.588;2023-12-28T11:08:11;6.47;;;2.70;;
68976;SDS011;56029;52.568;13.588;2023-12-28T11:10:39;5.57;;;2.70;;
68976;SDS011;56029;52.568;13.588;2023-12-28T11:13:05;4.20;;;2.40;;
68976;SDS011;56029;52.568;13.588;2023-12-28T11:15:31;5.05;;;2.60;;
68976;SDS011;56029;52.568;13.588;2023-12-28T11:17:57;5.10;;;2.70;;
68976;SDS011;56029;52.568;13.588;2023-12-28T11:20:23;5.40;;;2.85;;
68976;SDS011;56029;52.568;13.588;2023-12-28T11:22:49;5.80;;;2.93;;
68976;SDS011;56029;52.568;13.588;2023-12-28T11:25:16;6.03;;;2.80;;
68976;SDS011;56029;52.568;13.588;2023-12-28T11:27:42;5.38;;;2.83;;
68976;SDS011;56029;52.568;13.588;2023-12-28T11:30:09;6.30;;;2.90;;
68976;SDS011;56029;52.568;13.588;2023-12-28T11:32:36;5.82;;;2.67;;
68976;SDS011;56029;52.568;13.588;2023-12-28T11:35:01;6.88;;;2.80;;
68976;SDS011;56029;52.568;13.588;2023-12-28T11:37:28;5.27;;;2.70;;
68976;SDS011;56029;52.568;13.588;2023-12-28T11:39:54;5.30;;;2.90;;
68976;SDS011;56029;52.568;13.588;2023-12-28T11:42:20;6.72;;;2.85;;
68976;SDS011;56029;52.568;13.588;2023-12-28T11:44:47;6.85;;;3.00;;
68976;SDS011;56029;52.568;13.588;2023-12-28T11:47:13;5.47;;;2.77;;
68976;SDS011;56029;52.568;13.588;2023-12-28T11:49:39;5.05;;;2.60;;
68976;SDS011;56029;52.568;13.588;2023-12-28T11:52:05;5.03;;;3.00;;
68976;SDS011;56029;52.568;13.588;2023-12-28T11:54:36;5.40;;;2.70;;
68976;SDS011;56029;52.568;13.588;2023-12-28T11:57:02;4.53;;;2.50;;
68976;SDS011;56029;52.568;13.588;2023-12-28T11:59:27;5.78;;;2.55;;
68976;SDS011;56029;52.568;13.588;2023-12-28T12:01:53;5.87;;;2.50;;
68976;SDS011;56029;52.568;13.588;2023-12-28T12:04:21;5.05;;;2.70;;
68976;SDS011;56029;52.568;13.588;2023-12-28T12:06:47;6.60;;;2.67;;
68976;SDS011;56029;52.568;13.588;2023-12-28T12:09:14;5.55;;;2.70;;
68976;SDS011;56029;52.568;13.588;2023-12-28T12:11:40;4.85;;;2.40;;
68976;SDS011;56029;52.568;13.588;2023-12-28T12:14:07;4.73;;;2.33;;
68976;SDS011;56029;52.568;13.588;2023-12-28T12:16:37;5.55;;;2.25;;
68976;SDS011;56029;52.568;13.588;2023-12-28T12:19:03;5.55;;;2.50;;
68976;SDS011;56029;52.568;13.588;2023-12-28T12:21:30;4.82;;;2.40;;
68976;SDS011;56029;52.568;13.588;2023-12-28T12:23:55;5.33;;;2.50;;
68976;SDS011;56029;52.568;13.588;2023-12-28T12:26:25;4.60;;;2.40;;
68976;SDS011;56029;52.568;13.588;2023-12-28T12:28:51;5.73;;;2.53;;
68976;SDS011;56029;52.568;13.588;2023-12-28T12:31:17;5.00;;;2.60;;
68976;SDS011;56029;52.568;13.588;2023-12-28T12:33:43;4.70;;;2.35;;
68976;SDS011;56029;52.568;13.588;2023-12-28T12:36:09;6.10;;;2.67;;
68976;SDS011;56029;52.568;13.588;2023-12-28T12:38:34;5.10;;;2.50;;
68976;SDS011;56029;52.568;13.588;2023-12-28T12:41:01;5.13;;;2.43;;
68976;SDS011;56029;52.568;13.588;2023-12-28T12:43:26;5.38;;;2.33;;
68976;SDS011;56029;52.568;13.588;2023-12-28T12:45:52;6.40;;;2.30;;
68976;SDS011;56029;52.568;13.588;2023-12-28T12:48:18;4.53;;;2.40;;
68976;SDS011;56029;52.568;13.588;2023-12-28T12:50:44;5.18;;;2.20;;
68976;SDS011;56029;52.568;13.588;2023-12-28T12:53:13;5.82;;;2.40;;
68976;SDS011;56029;52.568;13.588;2023-12-28T12:55:39;5.67;;;2.30;;
68976;SDS011;56029;52.568;13.588;2023-12-28T12:58:05;6.13;;;2.40;;
68976;SDS011;56029;52.568;13.588;2023-12-28T13:00:31;4.97;;;2.13;;
68976;SDS011;56029;52.568;13.588;2023-12-28T13:03:03;4.38;;;2.15;;
68976;SDS011;56029;52.568;13.588;2023-12-28T13:05:34;6.97;;;2.25;;
68976;SDS011;56029;52.568;13.588;2023-12-28T13:08:00;3.53;;;1.90;;
68976;SDS011;56029;52.568;13.588;2023-12-28T13:10:26;6.22;;;2.30;;
68976;SDS011;56029;52.568;13.588;2023-12-28T13:12:51;3.40;;;2.40;;
68976;SDS011;56029;52.568;13.588;2023-12-28T13:15:17;5.30;;;2.42;;
68976;SDS011;56029;52.568;13.588;2023-12-28T13:17:42;4.83;;;2.23;;
68976;SDS011;56029;52.568;13.588;2023-12-28T13:20:08;4.22;;;2.20;;
68976;SDS011;56029;52.568;13.588;2023-12-28T13:22:34;6.85;;;2.50;;
68976;SDS011;56029;52.568;13.588;2023-12-28T13:25:00;5.67;;;2.37;;
68976;SDS011;56029;52.568;13.588;2023-12-28T13:27:26;4.43;;;2.33;;
68976;SDS011;56029;52.568;13.588;2023-12-28T13:29:51;5.07;;;2.40;;
68976;SDS011;56029;52.568;13.588;2023-12-28T13:32:17;4.73;;;2.30;;
68976;SDS011;56029;52.568;13.588;2023-12-28T13:34:43;6.40;;;2.40;;
68976;SDS011;56029;52.568;13.588;2023-12-28T13:37:08;6.67;;;2.50;;
68976;SDS011;56029;52.568;13.588;2023-12-28T13:39:34;5.35;;;2.47;;
68976;SDS011;56029;52.568;13.588;2023-12-28T13:41:59;5.60;;;2.47;;
68976;SDS011;56029;52.568;13.588;2023-12-28T13:44:25;4.70;;;2.40;;
68976;SDS011;56029;52.568;13.588;2023-12-28T13:46:50;5.15;;;2.42;;
68976;SDS011;56029;52.568;13.588;2023-12-28T13:49:16;4.70;;;2.40;;
68976;SDS011;56029;52.568;13.588;2023-12-28T13:51:41;4.27;;;2.30;;
68976;SDS011;56029;52.568;13.588;2023-12-28T13:54:07;4.22;;;2.20;;
68976;SDS011;56029;52.568;13.588;2023-12-28T13:56:32;5.13;;;2.40;;
68976;SDS011;56029;52.568;13.588;2023-12-28T13:58:58;3.95;;;2.30;;
68976;SDS011;56029;52.568;13.588;2023-12-28T14:01:23;5.87;;;2.33;;
68976;SDS011;56029;52.568;13.588;2023-12-28T14:03:49;5.40;;;2.30;;
68976;SDS011;56029;52.568;13.588;2023-12-28T14:06:14;5.20;;;2.33;;
68976;SDS011;56029;52.568;13.588;2023-12-28T14:08:40;6.07;;;2.23;;
68976;SDS011;56029;52.568;13.588;2023-12-28T14:11:08;4.97;;;2.33;;
68976;SDS011;56029;52.568;13.588;2023-12-28T14:13:34;5.00;;;2.50;;
68976;SDS011;56029;52.568;13.588;2023-12-28T14:16:00;5.83;;;2.50;;
68976;SDS011;56029;52.568;13.588;2023-12-28T14:18:25;5.13;;;2.20;;
68976;SDS011;56029;52.568;13.588;2023-12-28T14:20:51;5.33;;;2.70;;
68976;SDS011;56029;52.568;13.588;2023-12-28T14:23:17;5.22;;;2.38;;
68976;SDS011;56029;52.568;13.588;2023-12-28T14:25:43;7.03;;;2.50;;
68976;SDS011;56029;52.568;13.588;2023-12-28T14:28:09;6.30;;;2.40;;
68976;SDS011;56029;52.568;13.588;2023-12-28T14:30:35;6.18;;;2.40;;
68976;SDS011;56029;52.568;13.588;2023-12-28T14:33:01;4.82;;;2.10;;